Terminal Aerodrome Forecast
Issued by NWS

Home | Current Version | Previous Version | Text Only | Print | Product List | Glossary On
Versions: 1 2 3 4 5 6 7 8 9 10 11 12 13 14 15 16 17
000
FTUS45 KRIW 261730
TAFBPI
TAF
KBPI 261730Z 2618/2718 35007KT P6SM FEW040 SCT060
     FM262000 31010KT P6SM VCTS SCT040CB BKN060
     FM270200 VRB05KT P6SM VCSH SCT030 BKN050
     FM271000 VRB05KT P6SM SCT040 BKN080=

USA.gov is the U.S. government's official web portal to all federal, state and local government web resources and services.